createdAt,value
2023-05-10T00:00:30.415Z,9.03
2023-05-10T00:01:30.396Z,9.03
2023-05-10T00:02:30.449Z,9.03
2023-05-10T00:03:30.449Z,9.01
2023-05-10T00:04:30.396Z,9.00
2023-05-10T00:05:30.324Z,9.00
2023-05-10T00:06:30.337Z,8.97
2023-05-10T00:07:30.335Z,8.96
2023-05-10T00:08:30.320Z,8.96
2023-05-10T00:09:30.311Z,8.93
2023-05-10T00:10:30.286Z,8.91
2023-05-10T00:11:30.265Z,8.91
2023-05-10T00:12:30.253Z,8.89
2023-05-10T00:13:30.394Z,8.89
2023-05-10T00:14:30.247Z,8.88
2023-05-10T00:15:30.220Z,8.86
2023-05-10T00:16:30.221Z,8.83
2023-05-10T00:17:30.228Z,8.82
2023-05-10T00:18:30.178Z,8.82
2023-05-10T00:19:30.176Z,8.79
2023-05-10T00:20:30.192Z,8.80
2023-05-10T00:21:30.149Z,8.78
2023-05-10T00:22:30.161Z,8.79
2023-05-10T00:23:30.133Z,8.79
2023-05-10T00:24:30.132Z,8.78
2023-05-10T00:25:30.072Z,8.76
2023-05-10T00:26:30.113Z,8.75
2023-05-10T00:27:30.062Z,8.73
2023-05-10T00:28:30.067Z,8.71
2023-05-10T00:29:30.023Z,8.68
2023-05-10T00:30:30.034Z,8.70
2023-05-10T00:31:30.068Z,8.68
2023-05-10T00:32:30.049Z,8.67
2023-05-10T00:33:29.982Z,8.67
2023-05-10T00:34:29.959Z,8.68
2023-05-10T00:35:29.947Z,8.67
2023-05-10T00:36:29.948Z,8.67
2023-05-10T00:37:29.939Z,8.67
2023-05-10T00:38:29.921Z,8.65
2023-05-10T00:39:29.894Z,8.67
2023-05-10T00:40:29.892Z,8.67
2023-05-10T00:41:29.878Z,8.68
2023-05-10T00:42:29.877Z,8.70
2023-05-10T00:43:29.844Z,8.70
2023-05-10T00:44:29.825Z,8.71
2023-05-10T00:45:29.818Z,8.73
2023-05-10T00:46:29.887Z,8.73
2023-05-10T00:47:29.858Z,8.76
2023-05-10T00:48:29.805Z,8.78
2023-05-10T00:49:29.759Z,8.76
2023-05-10T00:50:29.745Z,8.76
2023-05-10T00:51:29.797Z,8.76
2023-05-10T00:52:29.741Z,8.75
2023-05-10T00:53:29.741Z,8.76
2023-05-10T00:54:29.692Z,8.76
2023-05-10T00:55:29.689Z,8.79
2023-05-10T00:56:29.698Z,8.80
2023-05-10T00:57:29.653Z,8.79
2023-05-10T00:58:29.682Z,8.78
2023-05-10T00:59:29.673Z,8.79
2023-05-10T01:00:29.664Z,8.83
2023-05-10T01:01:29.660Z,8.89
2023-05-10T01:02:29.689Z,8.91
2023-05-10T01:03:29.610Z,8.93
2023-05-10T01:04:29.615Z,8.96
2023-05-10T01:05:29.579Z,8.98
2023-05-10T01:06:29.531Z,9.01
2023-05-10T01:07:29.520Z,9.03
2023-05-10T01:08:29.555Z,9.04
2023-05-10T01:09:29.507Z,9.08
2023-05-10T01:10:29.565Z,9.06
2023-05-10T01:11:29.503Z,9.04
2023-05-10T01:12:29.516Z,9.04
2023-05-10T01:13:29.526Z,9.03
2023-05-10T01:14:29.454Z,9.04
2023-05-10T01:15:29.437Z,9.01
2023-05-10T01:16:29.506Z,8.98
2023-05-10T01:17:29.432Z,8.98
2023-05-10T01:18:29.375Z,9.01
2023-05-10T01:19:29.392Z,9.01
2023-05-10T01:20:29.370Z,9.01
2023-05-10T01:21:29.344Z,9.01
2023-05-10T01:22:29.348Z,9.01
2023-05-10T01:23:29.329Z,9.01
2023-05-10T01:24:29.325Z,9.00
2023-05-10T01:25:29.290Z,9.00
2023-05-10T01:26:29.279Z,8.98
2023-05-10T01:27:29.266Z,9.00
2023-05-10T01:28:29.259Z,9.00
2023-05-10T01:29:29.251Z,9.01
2023-05-10T01:30:29.225Z,9.04
2023-05-10T01:31:29.241Z,9.03
2023-05-10T01:32:29.233Z,9.04
2023-05-10T01:33:29.221Z,9.04
2023-05-10T01:34:29.193Z,9.01
2023-05-10T01:35:29.208Z,9.03
2023-05-10T01:36:29.138Z,9.01
2023-05-10T01:37:29.146Z,9.01
2023-05-10T01:38:29.131Z,9.01
2023-05-10T01:39:29.127Z,9.03
2023-05-10T01:40:29.084Z,9.06
2023-05-10T01:41:29.112Z,9.03
2023-05-10T01:42:29.063Z,9.03
2023-05-10T01:43:29.078Z,9.03
2023-05-10T01:44:29.065Z,9.01
2023-05-10T01:45:29.025Z,8.98
2023-05-10T01:46:29.050Z,8.98
2023-05-10T01:47:29.076Z,8.97
2023-05-10T01:48:29.012Z,8.96
2023-05-10T01:49:28.974Z,8.94
2023-05-10T01:50:28.950Z,8.91
2023-05-10T01:51:28.955Z,8.91
2023-05-10T01:52:28.948Z,8.89
2023-05-10T01:53:28.927Z,8.88
2023-05-10T01:54:28.912Z,8.85
2023-05-10T01:55:28.897Z,8.82
2023-05-10T01:56:28.895Z,8.82
2023-05-10T01:57:28.931Z,8.79
2023-05-10T01:58:28.891Z,8.79
2023-05-10T01:59:28.854Z,8.78
2023-05-10T02:00:28.868Z,8.75
2023-05-10T02:01:28.864Z,8.71
2023-05-10T02:02:28.867Z,8.70
2023-05-10T02:03:28.818Z,8.67
2023-05-10T02:04:28.791Z,8.64
2023-05-10T02:05:28.776Z,8.63
2023-05-10T02:06:28.757Z,8.61
2023-05-10T02:07:28.981Z,8.58
2023-05-10T02:08:28.710Z,8.57
2023-05-10T02:09:28.802Z,8.55
2023-05-10T02:10:28.699Z,8.55
2023-05-10T02:11:28.719Z,8.54
2023-05-10T02:12:28.672Z,8.52
2023-05-10T02:13:28.760Z,8.50
2023-05-10T02:14:28.678Z,8.49
2023-05-10T02:15:28.655Z,8.47
2023-05-10T02:16:28.699Z,8.46
2023-05-10T02:17:28.646Z,8.45
2023-05-10T02:18:28.605Z,8.46
2023-05-10T02:19:28.582Z,8.43
2023-05-10T02:20:28.570Z,8.42
2023-05-10T02:21:28.596Z,8.42
2023-05-10T02:22:28.548Z,8.40
2023-05-10T02:23:28.538Z,8.39
2023-05-10T02:24:28.504Z,8.37
2023-05-10T02:25:28.517Z,8.34
2023-05-10T02:26:28.481Z,8.32
2023-05-10T02:27:28.514Z,8.31
2023-05-10T02:28:28.466Z,8.28
2023-05-10T02:29:28.490Z,8.29
2023-05-10T02:30:28.462Z,8.28
2023-05-10T02:31:28.486Z,8.27
2023-05-10T02:32:28.529Z,8.24
2023-05-10T02:33:28.408Z,8.24
2023-05-10T02:34:28.400Z,8.22
2023-05-10T02:35:28.378Z,8.18
2023-05-10T02:36:28.358Z,8.17
2023-05-10T02:37:28.349Z,8.14
2023-05-10T02:38:28.318Z,8.13
2023-05-10T02:39:28.345Z,8.12
2023-05-10T02:40:28.921Z,8.12
2023-05-10T02:41:28.285Z,8.09
2023-05-10T02:42:28.267Z,8.07
2023-05-10T02:43:28.310Z,8.07
2023-05-10T02:44:28.264Z,8.06
2023-05-10T02:45:28.255Z,8.04
2023-05-10T02:46:28.369Z,8.04
2023-05-10T02:47:28.245Z,8.03
2023-05-10T02:48:28.214Z,8.02
2023-05-10T02:49:28.190Z,8.00
2023-05-10T02:50:28.191Z,8.00
2023-05-10T02:51:28.146Z,8.00
2023-05-10T02:52:28.156Z,7.99
2023-05-10T02:53:28.189Z,7.96
2023-05-10T02:54:28.123Z,8.00
2023-05-10T02:55:28.111Z,7.99
2023-05-10T02:56:28.094Z,7.96
2023-05-10T02:57:28.114Z,7.96
2023-05-10T02:58:28.088Z,7.96
2023-05-10T02:59:28.047Z,7.94
2023-05-10T03:00:28.052Z,7.92
2023-05-10T03:01:28.077Z,7.91
2023-05-10T03:02:28.081Z,7.91
2023-05-10T03:03:28.003Z,7.92
2023-05-10T03:04:28.037Z,7.92
2023-05-10T03:05:27.979Z,7.92
2023-05-10T03:06:27.971Z,7.94
2023-05-10T03:07:27.953Z,7.95
2023-05-10T03:08:27.933Z,7.94
2023-05-10T03:09:27.947Z,7.94
2023-05-10T03:10:27.907Z,7.92
2023-05-10T03:11:27.915Z,7.92
2023-05-10T03:12:27.922Z,7.91
2023-05-10T03:13:28.024Z,7.89
2023-05-10T03:14:27.866Z,7.88
2023-05-10T03:15:27.873Z,7.86
2023-05-10T03:16:28.133Z,7.88
2023-05-10T03:17:27.892Z,7.86
2023-05-10T03:18:27.854Z,7.88
2023-05-10T03:19:27.807Z,7.86
2023-05-10T03:20:27.773Z,7.86
2023-05-10T03:21:27.790Z,7.88
2023-05-10T03:22:27.757Z,7.88
2023-05-10T03:23:27.740Z,7.89
2023-05-10T03:24:27.727Z,7.91
2023-05-10T03:25:27.711Z,7.91
2023-05-10T03:26:27.731Z,7.91
2023-05-10T03:27:27.715Z,7.92
2023-05-10T03:28:27.712Z,7.92
2023-05-10T03:29:27.684Z,7.92
2023-05-10T03:30:27.653Z,7.94
2023-05-10T03:31:27.744Z,7.94
2023-05-10T03:32:27.627Z,7.95
2023-05-10T03:33:27.620Z,7.99
2023-05-10T03:34:27.589Z,8.02
2023-05-10T03:35:27.589Z,8.03
2023-05-10T03:36:27.561Z,8.04
2023-05-10T03:37:27.565Z,8.06
2023-05-10T03:38:30.274Z,8.07
2023-05-10T03:39:27.534Z,8.09
2023-05-10T03:40:27.518Z,8.10
2023-05-10T03:41:27.533Z,8.12
2023-05-10T03:42:27.487Z,8.13
2023-05-10T03:43:27.481Z,8.14
2023-05-10T03:44:27.467Z,8.17
2023-05-10T03:45:27.549Z,8.18
2023-05-10T03:46:27.493Z,8.20
2023-05-10T03:47:27.456Z,8.21
2023-05-10T03:48:27.431Z,8.22
2023-05-10T03:49:27.407Z,8.24
2023-05-10T03:50:27.379Z,8.27
2023-05-10T03:51:27.367Z,8.28
2023-05-10T03:52:27.384Z,8.31
2023-05-10T03:53:27.359Z,8.34
2023-05-10T03:54:27.356Z,8.39
2023-05-10T03:55:27.332Z,8.43
2023-05-10T03:56:27.314Z,8.45
2023-05-10T03:57:27.346Z,8.50
2023-05-10T03:58:27.274Z,8.54
2023-05-10T03:59:27.277Z,8.57
2023-05-10T04:00:27.262Z,8.60
2023-05-10T04:01:27.235Z,8.63
2023-05-10T04:02:27.315Z,8.68
2023-05-10T04:03:27.266Z,8.71
2023-05-10T04:04:27.220Z,8.80
2023-05-10T04:05:27.195Z,8.88
2023-05-10T04:06:27.234Z,8.94
2023-05-10T04:07:27.173Z,8.98
2023-05-10T04:08:27.166Z,9.03
2023-05-10T04:09:27.151Z,9.10
2023-05-10T04:10:27.102Z,9.20
2023-05-10T04:11:27.128Z,9.30
2023-05-10T04:12:27.095Z,9.34
2023-05-10T04:13:27.156Z,9.42
2023-05-10T04:14:27.062Z,9.50
2023-05-10T04:15:27.046Z,9.58
2023-05-10T04:16:27.086Z,9.62
2023-05-10T04:17:27.160Z,9.68
2023-05-10T04:18:27.017Z,9.77
2023-05-10T04:19:27.005Z,9.83
2023-05-10T04:20:26.973Z,9.91
2023-05-10T04:21:26.966Z,9.95
2023-05-10T04:22:26.968Z,10.01
2023-05-10T04:23:26.997Z,10.09
2023-05-10T04:24:29.084Z,10.17
2023-05-10T04:25:26.941Z,10.25
2023-05-10T04:26:26.931Z,10.31
2023-05-10T04:27:26.923Z,10.35
2023-05-10T04:28:26.903Z,10.43
2023-05-10T04:29:26.876Z,10.52
2023-05-10T04:30:26.860Z,10.63
2023-05-10T04:31:26.905Z,10.72
2023-05-10T04:32:26.875Z,10.80
2023-05-10T04:33:26.838Z,10.90
2023-05-10T04:34:26.816Z,10.99
2023-05-10T04:35:26.798Z,11.13
2023-05-10T04:36:26.815Z,11.35
2023-05-10T04:37:26.781Z,11.59
2023-05-10T04:38:26.756Z,11.94
2023-05-10T04:39:26.754Z,12.31
2023-05-10T04:40:26.734Z,12.74
2023-05-10T04:41:26.719Z,13.19
2023-05-10T04:42:26.706Z,13.68
2023-05-10T04:43:26.682Z,14.11
2023-05-10T04:44:26.664Z,14.54
2023-05-10T04:45:26.661Z,14.98
2023-05-10T04:46:26.801Z,15.35
2023-05-10T04:47:26.684Z,15.67
2023-05-10T04:48:26.653Z,15.98
2023-05-10T04:49:26.607Z,16.23
2023-05-10T04:50:26.596Z,16.36
2023-05-10T04:51:26.664Z,16.44
2023-05-10T04:52:26.577Z,16.62
2023-05-10T04:53:26.556Z,16.85
2023-05-10T04:54:26.579Z,17.14
2023-05-10T04:55:26.526Z,17.47
2023-05-10T04:56:26.538Z,17.81
2023-05-10T04:57:26.500Z,18.11
2023-05-10T04:58:26.488Z,18.32
2023-05-10T04:59:26.489Z,18.51
2023-05-10T05:00:26.477Z,18.71
2023-05-10T05:01:26.529Z,18.89
2023-05-10T05:02:26.496Z,19.07
2023-05-10T05:03:26.559Z,19.28
2023-05-10T05:04:26.416Z,19.46
2023-05-10T05:05:26.411Z,19.70
2023-05-10T05:06:26.397Z,19.72
2023-05-10T05:07:26.404Z,19.75
2023-05-10T05:08:26.353Z,19.83
2023-05-10T05:09:26.346Z,19.97
2023-05-10T05:10:26.347Z,20.13
2023-05-10T05:11:26.328Z,20.13
2023-05-10T05:12:26.300Z,20.13
2023-05-10T05:13:26.358Z,20.15
2023-05-10T05:14:26.338Z,20.17
2023-05-10T05:15:26.310Z,20.27
2023-05-10T05:16:26.274Z,20.48
2023-05-10T05:17:26.285Z,20.69
2023-05-10T05:18:26.217Z,20.96
2023-05-10T05:19:26.232Z,21.22
2023-05-10T05:20:26.213Z,21.48
2023-05-10T05:21:26.182Z,21.74
2023-05-10T05:22:26.180Z,22.09
2023-05-10T05:23:26.156Z,22.46
2023-05-10T05:24:26.172Z,22.79
2023-05-10T05:25:26.156Z,23.06
2023-05-10T05:26:26.127Z,23.22
2023-05-10T05:27:26.113Z,23.07
2023-05-10T05:28:26.113Z,22.82
2023-05-10T05:29:26.105Z,22.44
2023-05-10T05:30:26.088Z,22.09
2023-05-10T05:31:26.080Z,21.85
2023-05-10T05:32:26.101Z,21.66
2023-05-10T05:33:26.026Z,21.55
2023-05-10T05:34:26.037Z,21.34
2023-05-10T05:35:26.006Z,21.06
2023-05-10T05:36:26.010Z,20.79
2023-05-10T05:37:25.997Z,20.46
2023-05-10T05:38:25.996Z,20.20
2023-05-10T05:39:25.960Z,20.05
2023-05-10T05:40:25.943Z,19.86
2023-05-10T05:41:25.952Z,19.64
2023-05-10T05:42:25.909Z,19.45
2023-05-10T05:43:25.942Z,19.24
2023-05-10T05:44:25.890Z,19.09
2023-05-10T05:45:25.872Z,18.94
2023-05-10T05:46:25.933Z,18.82
2023-05-10T05:47:25.868Z,18.68
2023-05-10T05:48:25.852Z,18.60
2023-05-10T05:49:25.823Z,18.54
2023-05-10T05:50:25.806Z,18.49
2023-05-10T05:51:25.806Z,18.41
2023-05-10T05:52:25.901Z,18.31
2023-05-10T05:53:25.780Z,18.23
2023-05-10T05:54:25.756Z,18.26
2023-05-10T05:55:25.755Z,18.31
2023-05-10T05:56:25.826Z,18.31
2023-05-10T05:57:25.720Z,18.32
2023-05-10T05:58:25.733Z,18.31
2023-05-10T05:59:25.685Z,18.29
2023-05-10T06:00:25.693Z,18.29
2023-05-10T06:01:25.659Z,18.34
2023-05-10T06:02:25.729Z,18.36
2023-05-10T06:03:25.768Z,18.46
2023-05-10T06:04:25.718Z,18.54
2023-05-10T06:05:25.604Z,18.54
2023-05-10T06:06:25.643Z,18.57
2023-05-10T06:07:25.610Z,18.62
2023-05-10T06:08:25.571Z,18.69
2023-05-10T06:09:25.639Z,18.69
2023-05-10T06:10:25.562Z,18.75
2023-05-10T06:11:25.541Z,18.79
2023-05-10T06:12:25.533Z,18.72
2023-05-10T06:13:25.584Z,18.69
2023-05-10T06:14:25.519Z,18.72
2023-05-10T06:15:25.471Z,18.75
2023-05-10T06:16:25.517Z,18.75
2023-05-10T06:17:25.455Z,18.78
2023-05-10T06:18:25.440Z,18.84
2023-05-10T06:19:25.458Z,18.93
2023-05-10T06:20:25.407Z,18.93
2023-05-10T06:21:25.469Z,18.94
2023-05-10T06:22:25.402Z,18.93
2023-05-10T06:23:25.374Z,18.91
2023-05-10T06:24:25.367Z,18.96
2023-05-10T06:25:25.376Z,19.01
2023-05-10T06:26:25.345Z,18.99
2023-05-10T06:27:25.352Z,18.94
2023-05-10T06:28:25.314Z,18.96
2023-05-10T06:29:25.298Z,19.06
2023-05-10T06:30:25.292Z,19.10
2023-05-10T06:31:25.318Z,19.21
2023-05-10T06:32:25.265Z,19.28
2023-05-10T06:33:25.251Z,19.34
2023-05-10T06:34:25.266Z,19.28
2023-05-10T06:35:25.238Z,19.28
2023-05-10T06:36:25.199Z,19.31
2023-05-10T06:37:25.198Z,19.35
2023-05-10T06:38:25.178Z,19.35
2023-05-10T06:39:25.204Z,19.35
2023-05-10T06:40:25.202Z,19.34
2023-05-10T06:41:25.133Z,19.35
2023-05-10T06:42:25.148Z,19.39
2023-05-10T06:43:25.105Z,19.42
2023-05-10T06:44:25.161Z,19.45
2023-05-10T06:45:25.113Z,19.47
2023-05-10T06:46:25.107Z,19.49
2023-05-10T06:47:25.073Z,19.50
2023-05-10T06:48:25.078Z,19.50
2023-05-10T06:49:25.039Z,19.50
2023-05-10T06:50:25.042Z,19.55
2023-05-10T06:51:25.002Z,19.67
2023-05-10T06:52:25.622Z,19.78
2023-05-10T06:53:24.980Z,19.90
2023-05-10T06:54:24.984Z,20.00
2023-05-10T06:55:24.955Z,19.97
2023-05-10T06:56:24.977Z,20.02
2023-05-10T06:58:26.374Z,20.25
2023-05-10T06:59:24.956Z,20.46
2023-05-10T07:00:24.970Z,20.64
2023-05-10T07:01:25.291Z,20.82
2023-05-10T07:02:25.010Z,21.06
2023-05-10T07:03:24.914Z,21.28
2023-05-10T07:04:24.956Z,21.53
2023-05-10T07:05:24.865Z,21.77
2023-05-10T07:06:32.984Z,22.05
2023-05-10T07:07:25.789Z,22.31
2023-05-10T07:08:24.846Z,22.61
2023-05-10T07:09:24.804Z,22.88
2023-05-10T07:10:24.787Z,23.21
2023-05-10T07:11:24.761Z,23.41
2023-05-10T07:12:24.756Z,23.56
2023-05-10T07:13:24.807Z,23.74
2023-05-10T07:14:24.725Z,23.96
2023-05-10T07:15:24.693Z,24.23
2023-05-10T07:16:24.754Z,24.53
2023-05-10T07:17:24.721Z,24.93
2023-05-10T07:18:24.707Z,25.39
2023-05-10T07:19:24.634Z,25.78
2023-05-10T07:20:24.650Z,25.91
2023-05-10T07:21:24.651Z,25.86
2023-05-10T07:22:24.669Z,25.75
2023-05-10T07:23:24.603Z,25.75
2023-05-10T07:24:24.583Z,25.78
2023-05-10T07:25:24.575Z,26.12
2023-05-10T07:26:24.582Z,26.50
2023-05-10T07:27:24.574Z,26.90
2023-05-10T07:28:24.528Z,27.23
2023-05-10T07:29:24.512Z,27.23
2023-05-10T07:30:24.597Z,26.90
2023-05-10T07:31:24.542Z,26.72
2023-05-10T07:32:24.570Z,26.56
2023-05-10T07:33:24.492Z,26.42
2023-05-10T07:34:26.350Z,26.17
2023-05-10T07:35:24.432Z,25.79
2023-05-10T07:36:24.466Z,25.49
2023-05-10T07:37:24.440Z,25.19
2023-05-10T07:38:24.389Z,24.92
2023-05-10T07:39:27.734Z,24.66
2023-05-10T07:40:24.442Z,24.42
2023-05-10T07:41:24.363Z,24.21
2023-05-10T07:42:24.367Z,24.09
2023-05-10T07:43:24.324Z,23.97
2023-05-10T07:44:24.354Z,23.89
2023-05-10T07:45:25.458Z,23.54
2023-05-10T07:46:24.448Z,23.22
2023-05-10T07:47:24.315Z,23.06
2023-05-10T07:48:24.302Z,22.91
2023-05-10T07:49:24.247Z,22.82
2023-05-10T07:50:24.250Z,22.78
2023-05-10T07:51:25.226Z,22.64
2023-05-10T07:52:24.212Z,22.44
2023-05-10T07:53:24.257Z,22.14
2023-05-10T07:54:24.192Z,22.01
2023-05-10T07:55:24.210Z,21.90
2023-05-10T07:56:24.157Z,21.73
2023-05-10T07:57:24.136Z,21.51
2023-05-10T07:58:24.152Z,21.37
2023-05-10T07:59:24.106Z,21.28
2023-05-10T08:00:24.119Z,21.16
2023-05-10T08:01:24.259Z,21.01
2023-05-10T08:02:24.105Z,20.90
2023-05-10T08:03:24.153Z,20.82
2023-05-10T08:04:24.092Z,20.71
2023-05-10T08:05:24.079Z,20.61
2023-05-10T08:06:24.019Z,20.48
2023-05-10T08:07:24.050Z,20.40
2023-05-10T08:08:24.029Z,20.30
2023-05-10T08:09:24.004Z,20.20
2023-05-10T08:10:24.031Z,20.12
2023-05-10T08:11:23.969Z,20.05
2023-05-10T08:12:23.948Z,19.97
2023-05-10T08:13:23.947Z,19.94
2023-05-10T08:14:23.934Z,19.87
2023-05-10T08:15:23.954Z,19.82
2023-05-10T08:16:24.042Z,19.72
2023-05-10T08:17:24.775Z,19.60
2023-05-10T08:18:23.916Z,19.50
2023-05-10T08:19:23.882Z,19.40
2023-05-10T08:20:23.861Z,19.31
2023-05-10T08:21:23.844Z,19.23
2023-05-10T08:22:23.825Z,19.12
2023-05-10T08:23:23.820Z,18.97
2023-05-10T08:24:23.825Z,18.90
2023-05-10T08:25:23.778Z,18.82
2023-05-10T08:26:23.775Z,18.72
2023-05-10T08:27:23.774Z,18.64
2023-05-10T08:28:23.762Z,18.54
2023-05-10T08:29:24.010Z,18.44
2023-05-10T08:30:23.709Z,18.31
2023-05-10T08:31:23.739Z,18.23
2023-05-10T08:32:23.738Z,18.16
2023-05-10T08:33:23.692Z,18.02
2023-05-10T08:34:23.833Z,17.94
2023-05-10T08:35:23.647Z,17.80
2023-05-10T08:36:23.660Z,17.73
2023-05-10T08:37:23.622Z,17.58
2023-05-10T08:38:23.627Z,17.46
2023-05-10T08:39:30.381Z,17.32
2023-05-10T08:40:24.578Z,17.20
2023-05-10T08:41:24.741Z,17.15
2023-05-10T08:42:23.544Z,17.14
2023-05-10T08:43:23.556Z,17.09
2023-05-10T08:44:23.549Z,16.99
2023-05-10T08:45:23.514Z,16.91
2023-05-10T08:46:23.545Z,16.87
2023-05-10T08:47:23.564Z,16.82
2023-05-10T08:48:23.521Z,16.80
2023-05-10T08:49:23.472Z,16.78
2023-05-10T08:50:23.452Z,16.73
2023-05-10T08:51:23.450Z,16.70
2023-05-10T08:52:23.439Z,16.67
2023-05-10T08:53:23.444Z,16.65
2023-05-10T08:54:23.397Z,16.57
2023-05-10T08:55:23.388Z,16.50
2023-05-10T08:56:23.994Z,16.47
2023-05-10T08:57:24.370Z,16.42
2023-05-10T08:58:25.046Z,16.37
2023-05-10T08:59:24.966Z,16.30
2023-05-10T09:00:25.539Z,16.22
2023-05-10T09:01:24.997Z,16.16
2023-05-10T09:02:25.361Z,16.10
2023-05-10T09:03:25.258Z,16.08
2023-05-10T09:04:24.764Z,16.01
2023-05-10T09:05:23.261Z,15.93
2023-05-10T09:06:23.251Z,15.86
2023-05-10T09:07:23.222Z,15.81
2023-05-10T09:08:23.210Z,15.76
2023-05-10T09:09:23.223Z,15.71
2023-05-10T09:10:23.213Z,15.68
2023-05-10T09:11:23.192Z,15.64
2023-05-10T09:12:23.160Z,15.64
2023-05-10T09:13:23.143Z,15.64
2023-05-10T09:14:23.158Z,15.67
2023-05-10T09:15:23.125Z,15.67
2023-05-10T09:16:23.253Z,15.67
2023-05-10T09:17:23.217Z,15.64
2023-05-10T09:18:23.112Z,15.59
2023-05-10T09:19:23.075Z,15.55
2023-05-10T09:20:23.055Z,15.52
2023-05-10T09:21:23.056Z,15.55
2023-05-10T09:22:23.022Z,15.55
2023-05-10T09:23:23.037Z,15.53
2023-05-10T09:24:23.054Z,15.55
2023-05-10T09:25:23.011Z,15.56
2023-05-10T09:26:22.983Z,15.58
2023-05-10T09:27:22.997Z,15.59
2023-05-10T09:28:22.953Z,15.59
2023-05-10T09:29:22.929Z,15.62
2023-05-10T09:30:22.941Z,15.64
2023-05-10T09:31:22.943Z,15.64
2023-05-10T09:32:22.934Z,15.64
2023-05-10T09:33:22.879Z,15.68
2023-05-10T09:34:22.863Z,15.70
2023-05-10T09:35:22.872Z,15.71
2023-05-10T09:36:22.836Z,15.73
2023-05-10T09:37:22.841Z,15.70
2023-05-10T09:38:22.813Z,15.64
2023-05-10T09:39:22.856Z,15.60
2023-05-10T09:40:22.805Z,15.59
2023-05-10T09:41:22.778Z,15.59
2023-05-10T09:42:22.767Z,15.56
2023-05-10T09:43:22.775Z,15.58
2023-05-10T09:44:22.748Z,15.56
2023-05-10T09:45:22.737Z,15.59
2023-05-10T09:46:22.749Z,15.64
2023-05-10T09:47:22.719Z,15.66
2023-05-10T09:48:22.686Z,15.70
2023-05-10T09:49:22.798Z,15.71
2023-05-10T09:50:22.668Z,15.73
2023-05-10T09:51:22.662Z,15.76
2023-05-10T09:52:22.635Z,15.74
2023-05-10T09:53:22.683Z,15.74
2023-05-10T09:54:22.613Z,15.74
2023-05-10T09:55:22.598Z,15.76
2023-05-10T09:56:22.584Z,15.74
2023-05-10T09:57:22.576Z,15.73
2023-05-10T09:58:22.616Z,15.74
2023-05-10T09:59:22.553Z,15.78
2023-05-10T10:00:22.538Z,15.78
2023-05-10T10:01:22.553Z,15.80
2023-05-10T10:02:22.548Z,15.85
2023-05-10T10:03:22.528Z,15.85
2023-05-10T10:04:22.597Z,15.85
2023-05-10T10:05:22.470Z,15.85
2023-05-10T10:06:29.530Z,15.89
2023-05-10T10:07:23.489Z,15.91
2023-05-10T10:08:22.446Z,15.93
2023-05-10T10:09:24.569Z,15.99
2023-05-10T10:10:23.115Z,16.04
2023-05-10T10:11:23.144Z,16.08
2023-05-10T10:12:23.334Z,16.13
2023-05-10T10:13:22.375Z,16.16
2023-05-10T10:14:22.328Z,16.18
2023-05-10T10:15:22.514Z,16.22
2023-05-10T10:16:22.335Z,16.23
2023-05-10T10:17:22.378Z,16.23
2023-05-10T10:18:22.356Z,16.25
2023-05-10T10:19:22.285Z,16.26
2023-05-10T10:20:22.277Z,16.23
2023-05-10T10:21:22.256Z,16.22
2023-05-10T10:22:22.267Z,16.23
2023-05-10T10:23:22.246Z,16.23
2023-05-10T10:24:22.216Z,16.26
2023-05-10T10:25:22.201Z,16.27
2023-05-10T10:26:22.191Z,16.27
2023-05-10T10:27:22.186Z,16.29
2023-05-10T10:28:22.168Z,16.32
2023-05-10T10:29:22.195Z,16.34
2023-05-10T10:30:22.139Z,16.36
2023-05-10T10:31:22.170Z,16.37
2023-05-10T10:32:22.182Z,16.36
2023-05-10T10:34:23.106Z,16.33
2023-05-10T10:35:22.074Z,16.33
2023-05-10T10:36:22.073Z,16.36
2023-05-10T10:37:22.096Z,16.40
2023-05-10T10:38:22.043Z,16.41
2023-05-10T10:39:22.037Z,16.42
2023-05-10T10:40:21.996Z,16.42
2023-05-10T10:41:22.031Z,16.42
2023-05-10T10:42:22.002Z,16.40
2023-05-10T10:43:21.979Z,16.41
2023-05-10T10:44:21.950Z,16.36
2023-05-10T10:45:21.991Z,16.32
2023-05-10T10:46:22.445Z,16.27
2023-05-10T10:47:21.943Z,16.18
2023-05-10T10:48:21.900Z,16.13
2023-05-10T10:49:21.900Z,16.08
2023-05-10T10:50:21.874Z,16.07
2023-05-10T10:51:21.889Z,16.07
2023-05-10T10:52:21.871Z,16.08
2023-05-10T10:53:21.864Z,16.07
2023-05-10T10:54:21.833Z,16.07
2023-05-10T10:55:21.856Z,16.06
2023-05-10T10:56:21.815Z,16.07
2023-05-10T10:57:21.800Z,16.10
2023-05-10T10:58:21.877Z,16.11
2023-05-10T10:59:21.785Z,16.17
2023-05-10T11:00:21.765Z,16.22
2023-05-10T11:01:21.800Z,16.16
2023-05-10T11:02:21.716Z,16.17
2023-05-10T11:03:21.726Z,16.14
2023-05-10T11:04:21.759Z,16.17
2023-05-10T11:05:21.696Z,16.17
2023-05-10T11:06:21.687Z,16.17
2023-05-10T11:07:21.654Z,16.23
2023-05-10T11:08:21.673Z,16.26
2023-05-10T11:09:21.639Z,16.27
2023-05-10T11:10:21.620Z,16.33
2023-05-10T11:11:21.611Z,16.37
2023-05-10T11:12:21.586Z,16.41
2023-05-10T11:13:21.596Z,16.42
2023-05-10T11:14:21.577Z,16.45
2023-05-10T11:15:21.561Z,16.45
2023-05-10T11:16:21.602Z,16.47
2023-05-10T11:17:21.524Z,16.48
2023-05-10T11:18:21.568Z,16.51
2023-05-10T11:19:21.670Z,16.54
2023-05-10T11:20:21.488Z,16.59
2023-05-10T11:21:21.480Z,16.60
2023-05-10T11:22:21.466Z,16.62
2023-05-10T11:23:21.458Z,16.65
2023-05-10T11:24:21.457Z,16.67
2023-05-10T11:25:21.440Z,16.70
2023-05-10T11:26:21.407Z,16.75
2023-05-10T11:27:21.398Z,16.78
2023-05-10T11:28:21.415Z,16.82
2023-05-10T11:29:21.461Z,16.87
2023-05-10T11:30:21.348Z,16.91
2023-05-10T11:31:21.388Z,16.90
2023-05-10T11:32:21.327Z,16.96
2023-05-10T11:33:21.327Z,16.99
2023-05-10T11:34:21.307Z,16.99
2023-05-10T11:35:21.325Z,16.99
2023-05-10T11:36:21.290Z,16.99
2023-05-10T11:37:21.255Z,16.96
2023-05-10T11:38:21.268Z,16.99
2023-05-10T11:39:21.283Z,17.02
2023-05-10T11:40:21.233Z,17.07
2023-05-10T11:41:21.222Z,17.14
2023-05-10T11:42:21.200Z,17.24
2023-05-10T11:43:21.206Z,17.30
2023-05-10T11:44:21.168Z,17.32
2023-05-10T11:45:21.177Z,17.32
2023-05-10T11:46:21.166Z,17.36
2023-05-10T11:47:21.155Z,17.40
2023-05-10T11:48:21.143Z,17.40
2023-05-10T11:49:21.109Z,17.39
2023-05-10T11:50:21.086Z,17.42
2023-05-10T11:51:21.083Z,17.46
2023-05-10T11:52:21.112Z,17.49
2023-05-10T11:53:21.063Z,17.54
2023-05-10T11:54:21.047Z,17.55
2023-05-10T11:55:21.032Z,17.58
2023-05-10T11:56:21.026Z,17.63
2023-05-10T11:57:21.050Z,17.68
2023-05-10T11:58:21.002Z,17.76
2023-05-10T11:59:21.004Z,17.81
2023-05-10T12:00:20.954Z,17.83
2023-05-10T12:01:20.953Z,17.87
2023-05-10T12:02:21.037Z,17.92
2023-05-10T12:03:21.033Z,17.95
2023-05-10T12:04:21.034Z,17.92
2023-05-10T12:05:20.929Z,17.86
2023-05-10T12:06:20.905Z,17.84
2023-05-10T12:07:20.886Z,17.83
2023-05-10T12:08:20.859Z,17.83
2023-05-10T12:09:31.394Z,17.87
2023-05-10T12:10:21.824Z,17.87
2023-05-10T12:11:20.838Z,17.92
2023-05-10T12:12:20.835Z,17.94
2023-05-10T12:13:20.815Z,17.96
2023-05-10T12:14:20.769Z,17.96
2023-05-10T12:15:20.895Z,18.01
2023-05-10T12:16:20.822Z,18.01
2023-05-10T12:17:20.779Z,17.99
2023-05-10T12:18:20.809Z,18.01
2023-05-10T12:19:20.825Z,18.01
2023-05-10T12:20:20.886Z,18.04
2023-05-10T12:21:21.032Z,18.11
2023-05-10T12:22:20.766Z,18.19
2023-05-10T12:23:20.667Z,18.31
2023-05-10T12:24:21.703Z,18.36
2023-05-10T12:25:22.130Z,18.39
2023-05-10T12:26:20.625Z,18.47
2023-05-10T12:27:20.598Z,18.51
2023-05-10T12:28:20.585Z,18.54
2023-05-10T12:29:20.573Z,18.53
2023-05-10T12:30:21.838Z,18.53
2023-05-10T12:31:20.569Z,18.54
2023-05-10T12:32:20.643Z,18.57
2023-05-10T12:33:20.536Z,18.60
2023-05-10T12:34:20.517Z,18.56
2023-05-10T12:35:22.566Z,18.53
2023-05-10T12:36:21.140Z,18.54
2023-05-10T12:37:20.480Z,18.57
2023-05-10T12:38:20.450Z,18.53
2023-05-10T12:39:20.502Z,18.50
2023-05-10T12:40:20.437Z,18.49
2023-05-10T12:41:20.451Z,18.46
2023-05-10T12:42:20.403Z,18.44
2023-05-10T12:43:20.399Z,18.46
2023-05-10T12:44:20.390Z,18.49
2023-05-10T12:45:20.374Z,18.53
2023-05-10T12:46:20.377Z,18.56
2023-05-10T12:47:20.352Z,18.57
2023-05-10T12:48:20.316Z,18.59
2023-05-10T12:49:20.369Z,18.62
2023-05-10T12:50:20.302Z,18.64
2023-05-10T12:51:20.293Z,18.60
2023-05-10T12:52:20.291Z,18.54
2023-05-10T12:53:20.253Z,18.50
2023-05-10T12:54:20.260Z,18.47
2023-05-10T12:55:20.258Z,18.47
2023-05-10T12:56:20.219Z,18.50
2023-05-10T12:57:20.212Z,18.51
2023-05-10T12:58:34.365Z,18.53
2023-05-10T12:59:21.186Z,18.51
2023-05-10T13:00:20.161Z,18.51
2023-05-10T13:01:20.202Z,18.53
2023-05-10T13:02:20.136Z,18.57
2023-05-10T13:03:20.174Z,18.60